createdAt,value
2023-03-25T00:00:25.920Z,1.77
2023-03-25T00:02:54.456Z,4.00
2023-03-25T00:05:22.932Z,3.33
2023-03-25T00:07:51.818Z,2.90
2023-03-25T00:10:19.914Z,3.90
2023-03-25T00:12:49.856Z,2.13
2023-03-25T00:15:17.962Z,1.90
2023-03-25T00:17:45.993Z,2.33
2023-03-25T00:20:14.591Z,2.90
2023-03-25T00:22:44.189Z,4.17
2023-03-25T00:25:13.660Z,3.57
2023-03-25T00:27:44.045Z,2.00
2023-03-25T00:30:14.864Z,3.30
2023-03-25T00:32:45.747Z,3.20
2023-03-25T00:35:19.401Z,1.77
2023-03-25T00:37:47.926Z,6.63
2023-03-25T00:40:16.038Z,3.13
2023-03-25T00:42:45.287Z,4.73
2023-03-25T00:45:14.746Z,1.77
2023-03-25T00:47:42.725Z,3.07
2023-03-25T00:50:11.908Z,2.80
2023-03-25T00:52:39.867Z,4.90
2023-03-25T00:55:08.620Z,1.97
2023-03-25T00:57:36.617Z,2.87
2023-03-25T01:00:06.529Z,2.40
2023-03-25T01:02:36.024Z,2.53
2023-03-25T01:05:04.895Z,2.13
2023-03-25T01:07:33.811Z,2.43
2023-03-25T01:10:02.263Z,4.27
2023-03-25T01:12:30.085Z,2.33
2023-03-25T01:14:58.006Z,4.37
2023-03-25T01:17:26.442Z,2.60
2023-03-25T01:19:55.750Z,2.70
2023-03-25T01:22:23.631Z,2.50
2023-03-25T01:24:51.657Z,5.03
2023-03-25T01:27:19.628Z,2.83
2023-03-25T01:29:47.517Z,1.63
2023-03-25T01:32:15.532Z,2.83
2023-03-25T01:34:47.047Z,5.73
2023-03-25T01:37:18.162Z,2.97
2023-03-25T01:39:46.252Z,2.37
2023-03-25T01:42:14.196Z,3.70
2023-03-25T01:45:21.791Z,2.43
2023-03-25T01:47:50.721Z,4.50
2023-03-25T01:50:18.790Z,3.67
2023-03-25T01:52:52.390Z,3.80
2023-03-25T01:55:23.670Z,8.17
2023-03-25T01:57:54.474Z,5.70
2023-03-25T02:00:22.771Z,7.50
2023-03-25T02:02:52.988Z,7.33
2023-03-25T02:05:22.549Z,6.67
2023-03-25T02:07:52.547Z,5.20
2023-03-25T02:10:20.668Z,6.97
2023-03-25T02:12:49.001Z,6.50
2023-03-25T02:15:18.199Z,7.10
2023-03-25T02:17:58.230Z,7.00
2023-03-25T02:20:54.252Z,6.17
2023-03-25T02:23:58.499Z,6.60
2023-03-25T02:26:56.129Z,6.63
2023-03-25T02:29:28.102Z,6.43
2023-03-25T02:32:02.498Z,4.90
2023-03-25T02:34:57.384Z,8.33
2023-03-25T02:37:58.291Z,6.70
2023-03-25T02:40:27.663Z,5.13
2023-03-25T02:42:56.282Z,5.30
2023-03-25T02:45:26.341Z,5.50
2023-03-25T02:47:56.071Z,9.27
2023-03-25T02:50:26.917Z,4.43
2023-03-25T02:52:57.759Z,4.87
2023-03-25T02:55:26.263Z,3.60
2023-03-25T02:57:54.803Z,4.90
2023-03-25T03:00:25.564Z,5.87
2023-03-25T03:02:59.658Z,4.50
2023-03-25T03:05:28.722Z,4.80
2023-03-25T03:08:04.854Z,4.80
2023-03-25T03:10:35.558Z,4.20
2023-03-25T03:13:06.652Z,3.97
2023-03-25T03:15:38.729Z,6.40
2023-03-25T03:18:10.322Z,7.40
2023-03-25T03:20:41.058Z,4.10
2023-03-25T03:23:13.324Z,5.73
2023-03-25T03:25:44.827Z,5.60
2023-03-25T03:28:16.365Z,3.20
2023-03-25T03:30:46.495Z,2.90
2023-03-25T03:33:16.604Z,4.50
2023-03-25T03:35:50.241Z,4.03
2023-03-25T03:38:21.374Z,5.17
2023-03-25T03:40:51.855Z,4.83
2023-03-25T03:43:23.012Z,2.77
2023-03-25T03:45:51.944Z,4.07
2023-03-25T03:48:22.647Z,6.30
2023-03-25T03:50:51.901Z,5.90
2023-03-25T03:53:23.341Z,4.47
2023-03-25T03:55:52.071Z,5.20
2023-03-25T03:58:23.388Z,4.50
2023-03-25T04:00:53.112Z,2.77
2023-03-25T04:03:24.943Z,2.63
2023-03-25T04:05:54.990Z,4.10
2023-03-25T04:08:28.721Z,5.03
2023-03-25T04:10:59.373Z,3.50
2023-03-25T04:13:29.402Z,2.70
2023-03-25T04:16:00.803Z,4.70
2023-03-25T04:18:28.804Z,4.50
2023-03-25T04:20:56.944Z,4.47
2023-03-25T04:23:26.581Z,3.33
2023-03-25T04:25:54.491Z,5.27
2023-03-25T04:28:24.258Z,4.20
2023-03-25T04:30:55.985Z,2.60
2023-03-25T04:33:23.944Z,3.00
2023-03-25T04:35:52.499Z,5.17
2023-03-25T04:38:20.777Z,3.20
2023-03-25T04:40:50.522Z,3.43
2023-03-25T04:43:18.499Z,4.93
2023-03-25T04:45:55.300Z,2.13
2023-03-25T04:48:25.973Z,3.63
2023-03-25T04:50:55.896Z,2.27
2023-03-25T04:53:23.752Z,2.43
2023-03-25T04:55:54.168Z,2.20
2023-03-25T04:58:22.251Z,3.87
2023-03-25T05:00:51.204Z,2.50
2023-03-25T05:03:24.034Z,3.83
2023-03-25T05:05:53.114Z,4.57
2023-03-25T05:08:22.453Z,2.00
2023-03-25T05:10:50.461Z,5.13
2023-03-25T05:13:19.703Z,3.63
2023-03-25T05:15:49.135Z,2.07
2023-03-25T05:18:17.551Z,2.87
2023-03-25T05:20:47.197Z,2.00
2023-03-25T05:23:16.442Z,2.20
2023-03-25T05:25:44.310Z,2.50
2023-03-25T05:28:13.896Z,2.07
2023-03-25T05:30:45.458Z,3.90
2023-03-25T05:33:15.290Z,2.93
2023-03-25T05:35:43.772Z,3.63
2023-03-25T05:38:13.605Z,5.27
2023-03-25T05:40:42.064Z,3.27
2023-03-25T05:43:09.908Z,4.47
2023-03-25T05:45:37.895Z,3.20
2023-03-25T05:48:08.360Z,2.93
2023-03-25T05:50:37.527Z,2.73
2023-03-25T05:53:05.502Z,4.97
2023-03-25T05:55:33.370Z,3.20
2023-03-25T05:58:07.340Z,3.00
2023-03-25T06:00:37.173Z,4.30
2023-03-25T06:03:09.559Z,3.40
2023-03-25T06:05:39.885Z,3.13
2023-03-25T06:08:09.011Z,2.10
2023-03-25T06:10:36.913Z,2.47
2023-03-25T06:13:05.287Z,4.97
2023-03-25T06:15:39.518Z,4.57
2023-03-25T06:18:10.631Z,4.00
2023-03-25T06:20:39.225Z,2.20
2023-03-25T06:23:10.353Z,3.80
2023-03-25T06:25:38.607Z,3.23
2023-03-25T06:28:06.976Z,1.80
2023-03-25T06:30:34.842Z,3.43
2023-03-25T06:33:05.960Z,2.20
2023-03-25T06:35:35.451Z,2.70
2023-03-25T06:38:03.657Z,2.47
2023-03-25T06:40:31.654Z,3.80
2023-03-25T06:43:00.498Z,2.75
2023-03-25T06:45:28.374Z,4.20
2023-03-25T06:47:56.240Z,8.80
2023-03-25T06:50:24.552Z,1.97
2023-03-25T06:52:53.868Z,2.37
2023-03-25T06:55:21.766Z,4.93
2023-03-25T06:57:50.292Z,3.30
2023-03-25T07:00:23.375Z,3.83
2023-03-25T07:02:51.724Z,3.00
2023-03-25T07:05:19.793Z,6.83
2023-03-25T07:07:47.727Z,2.40
2023-03-25T07:10:17.127Z,3.53
2023-03-25T07:12:44.845Z,1.80
2023-03-25T07:15:12.600Z,2.20
2023-03-25T07:17:40.790Z,1.97
2023-03-25T07:20:12.474Z,2.47
2023-03-25T07:22:41.220Z,5.33
2023-03-25T07:25:09.942Z,2.87
2023-03-25T07:27:40.153Z,2.10
2023-03-25T07:30:09.545Z,3.93
2023-03-25T07:32:37.670Z,2.07
2023-03-25T07:35:06.589Z,2.90
2023-03-25T07:37:34.467Z,3.23
2023-03-25T07:40:02.521Z,2.70
2023-03-25T07:42:30.379Z,1.73
2023-03-25T07:44:59.686Z,4.10
2023-03-25T07:47:29.996Z,3.60
2023-03-25T07:49:58.034Z,3.83
2023-03-25T07:52:26.003Z,3.53
2023-03-25T07:54:53.871Z,3.50
2023-03-25T07:57:21.938Z,2.63
2023-03-25T07:59:49.798Z,3.20
2023-03-25T08:02:19.094Z,3.33
2023-03-25T08:04:47.751Z,2.53
2023-03-25T08:07:16.422Z,2.43
2023-03-25T08:09:44.546Z,3.47
2023-03-25T08:12:12.536Z,2.63
2023-03-25T08:14:40.600Z,3.53
2023-03-25T08:17:08.600Z,3.90
2023-03-25T08:19:38.156Z,1.63
2023-03-25T08:22:06.503Z,1.90
2023-03-25T08:24:34.593Z,4.27
2023-03-25T08:27:14.637Z,1.80
2023-03-25T08:29:44.482Z,2.80
2023-03-25T08:32:12.583Z,3.17
2023-03-25T08:34:42.154Z,2.33
2023-03-25T08:37:10.305Z,6.03
2023-03-25T08:39:40.383Z,4.07
2023-03-25T08:42:08.556Z,1.73
2023-03-25T08:44:37.064Z,4.43
2023-03-25T08:47:05.347Z,1.50
2023-03-25T08:49:33.411Z,2.17
2023-03-25T08:52:04.318Z,2.30
2023-03-25T08:54:32.404Z,1.93
2023-03-25T08:57:00.811Z,4.57
2023-03-25T08:59:28.971Z,1.37
2023-03-25T09:01:58.787Z,4.17
2023-03-25T09:04:28.010Z,1.60
2023-03-25T09:07:11.086Z,2.20
2023-03-25T09:09:41.856Z,2.23
2023-03-25T09:12:09.967Z,2.90
2023-03-25T09:14:39.820Z,3.80
2023-03-25T09:17:07.842Z,7.33
2023-03-25T09:19:37.976Z,1.87
2023-03-25T09:22:06.456Z,2.37
2023-03-25T09:24:35.826Z,3.57
2023-03-25T09:27:05.814Z,3.60
2023-03-25T09:29:33.829Z,3.63
2023-03-25T09:32:02.359Z,3.83
2023-03-25T09:34:31.102Z,8.33
2023-03-25T09:36:58.923Z,5.13
2023-03-25T09:39:27.369Z,2.60
2023-03-25T09:42:05.340Z,4.70
2023-03-25T09:44:35.690Z,2.80
2023-03-25T09:47:04.128Z,3.40
2023-03-25T09:49:38.021Z,5.30
2023-03-25T09:52:06.200Z,5.67
2023-03-25T09:54:35.835Z,2.53
2023-03-25T09:57:08.528Z,2.93
2023-03-25T09:59:57.466Z,2.50
2023-03-25T10:02:31.933Z,3.17
2023-03-25T10:05:18.524Z,3.70
2023-03-25T10:07:54.854Z,2.93
2023-03-25T10:10:26.894Z,2.80
2023-03-25T10:12:59.726Z,2.50
2023-03-25T10:15:31.073Z,3.80
2023-03-25T10:18:06.086Z,2.87
2023-03-25T10:20:42.452Z,2.70
2023-03-25T10:23:14.496Z,3.03
2023-03-25T10:25:44.663Z,2.90
2023-03-25T10:28:17.470Z,2.70
2023-03-25T10:30:46.406Z,2.60
2023-03-25T10:33:19.246Z,2.80
2023-03-25T10:35:50.784Z,2.80
2023-03-25T10:38:21.388Z,3.30
2023-03-25T10:40:53.259Z,2.67
2023-03-25T10:43:27.556Z,3.77
2023-03-25T10:45:57.423Z,5.40
2023-03-25T10:48:26.687Z,3.30
2023-03-25T10:50:57.215Z,2.10
2023-03-25T10:53:26.386Z,2.47
2023-03-25T10:55:57.707Z,2.87
2023-03-25T10:58:27.341Z,3.13
2023-03-25T11:00:55.820Z,2.73
2023-03-25T11:03:28.189Z,2.50
2023-03-25T11:05:56.364Z,4.63
2023-03-25T11:08:25.790Z,2.70
2023-03-25T11:10:57.418Z,3.03
2023-03-25T11:13:28.158Z,3.33
2023-03-25T11:15:57.326Z,2.87
2023-03-25T11:18:27.769Z,3.37
2023-03-25T11:20:58.109Z,5.80
2023-03-25T11:23:27.829Z,3.10
2023-03-25T11:25:55.880Z,4.57
2023-03-25T11:28:40.444Z,2.63
2023-03-25T11:31:10.327Z,2.40
2023-03-25T11:33:38.861Z,4.73
2023-03-25T11:36:26.675Z,5.47
2023-03-25T11:38:58.816Z,5.03
2023-03-25T11:41:30.427Z,3.50
2023-03-25T11:44:00.256Z,2.40
2023-03-25T11:46:31.365Z,2.73
2023-03-25T11:48:59.407Z,3.43
2023-03-25T11:51:29.500Z,2.60
2023-03-25T11:54:03.312Z,2.30
2023-03-25T11:56:34.467Z,3.03
2023-03-25T11:59:04.549Z,4.20
2023-03-25T12:01:39.485Z,2.30
2023-03-25T12:04:10.322Z,3.17
2023-03-25T12:06:38.454Z,3.83
2023-03-25T12:09:09.296Z,3.00
2023-03-25T12:11:42.510Z,2.47
2023-03-25T12:14:20.474Z,2.70
2023-03-25T12:16:51.359Z,2.87
2023-03-25T12:19:24.186Z,1.97
2023-03-25T12:22:02.407Z,2.17
2023-03-25T12:24:38.855Z,1.70
2023-03-25T12:27:17.154Z,1.63
2023-03-25T12:29:49.010Z,3.43
2023-03-25T12:32:34.093Z,24.40
2023-03-25T12:35:10.374Z,30.50
2023-03-25T12:37:45.150Z,38.73
2023-03-25T12:40:27.905Z,44.00
2023-03-25T12:42:59.836Z,35.03
2023-03-25T12:45:42.678Z,28.13
2023-03-25T12:48:15.144Z,21.67
2023-03-25T12:50:48.137Z,21.30
2023-03-25T12:53:40.347Z,24.03
2023-03-25T12:56:17.845Z,23.33
2023-03-25T12:59:02.807Z,30.67
2023-03-25T13:01:36.691Z,24.43
2023-03-25T13:04:22.327Z,28.57
2023-03-25T13:06:55.278Z,19.87
2023-03-25T13:09:24.108Z,22.87
2023-03-25T13:11:52.940Z,23.67
2023-03-25T13:14:32.409Z,28.77
2023-03-25T13:17:52.064Z,20.47
2023-03-25T13:20:22.323Z,20.93
2023-03-25T13:22:52.149Z,22.23
2023-03-25T13:25:24.108Z,24.07
2023-03-25T13:27:53.064Z,23.63
2023-03-25T13:30:30.459Z,20.10
2023-03-25T13:36:30.336Z,21.20
2023-03-25T13:39:12.091Z,18.47
2023-03-25T13:41:42.139Z,25.60
2023-03-25T13:44:12.488Z,18.90
2023-03-25T13:46:42.285Z,19.73
2023-03-25T13:49:14.962Z,16.17
2023-03-25T13:51:44.249Z,19.23
2023-03-25T13:54:14.618Z,18.33
2023-03-25T13:57:20.349Z,14.77
2023-03-25T14:00:07.178Z,19.53
2023-03-25T14:03:01.982Z,14.47
2023-03-25T14:05:41.610Z,12.63
2023-03-25T14:08:28.705Z,12.80
2023-03-25T14:10:59.552Z,10.57
2023-03-25T14:13:28.580Z,13.60
2023-03-25T14:15:59.919Z,15.17
2023-03-25T14:18:31.909Z,16.27
2023-03-25T14:21:00.297Z,14.80
2023-03-25T14:23:29.657Z,12.37
2023-03-25T14:25:58.400Z,24.17
2023-03-25T14:28:34.500Z,14.13
2023-03-25T14:31:30.530Z,17.67
2023-03-25T14:34:14.801Z,18.70
2023-03-25T14:37:18.369Z,16.10
2023-03-25T14:39:47.449Z,14.53
2023-03-25T14:42:29.582Z,18.60
2023-03-25T14:45:32.093Z,13.77
2023-03-25T14:48:00.594Z,14.70
2023-03-25T14:50:32.845Z,12.47
2023-03-25T14:53:03.020Z,12.40
2023-03-25T14:55:33.037Z,11.03
2023-03-25T14:58:01.901Z,14.97
2023-03-25T15:00:31.250Z,10.90
2023-03-25T15:03:01.659Z,12.50
2023-03-25T15:05:30.728Z,12.90
2023-03-25T15:08:00.350Z,16.63
2023-03-25T15:10:29.523Z,10.47
2023-03-25T15:13:02.825Z,9.87
2023-03-25T15:15:33.050Z,15.00
2023-03-25T15:18:01.076Z,16.87
2023-03-25T15:20:36.018Z,13.40
2023-03-25T15:23:39.887Z,9.53
2023-03-25T15:26:11.401Z,12.80
2023-03-25T15:28:50.492Z,14.50
2023-03-25T15:31:38.054Z,9.80
2023-03-25T15:34:21.067Z,13.47
2023-03-25T15:37:09.542Z,10.13
2023-03-25T15:39:57.886Z,11.90
2023-03-25T15:42:34.996Z,11.17
2023-03-25T15:45:36.051Z,10.83
2023-03-25T15:48:19.630Z,8.70
2023-03-25T15:51:15.638Z,6.70
2023-03-25T15:53:55.851Z,8.77
2023-03-25T15:56:24.951Z,9.97
2023-03-25T15:58:54.434Z,8.67
2023-03-25T16:01:36.198Z,5.13
2023-03-25T16:04:14.322Z,1.37
2023-03-25T16:06:43.560Z,2.70
2023-03-25T16:09:14.123Z,1.43
2023-03-25T16:11:43.262Z,1.53
2023-03-25T16:14:13.238Z,0.90
2023-03-25T16:16:45.170Z,3.13
2023-03-25T16:19:16.286Z,2.63
2023-03-25T16:21:44.388Z,2.10
2023-03-25T16:24:13.596Z,1.00
2023-03-25T16:26:42.832Z,1.23
2023-03-25T16:29:33.749Z,1.60
2023-03-25T16:32:05.123Z,2.40
2023-03-25T16:34:35.538Z,4.50
2023-03-25T16:37:03.709Z,2.63
2023-03-25T16:39:32.749Z,3.83
2023-03-25T16:42:02.179Z,3.97
2023-03-25T16:44:30.481Z,4.33
2023-03-25T16:47:02.368Z,3.03
2023-03-25T16:49:32.436Z,1.47
2023-03-25T16:52:01.666Z,4.93
2023-03-25T16:54:33.499Z,4.30
2023-03-25T16:57:01.844Z,1.43
2023-03-25T16:59:30.836Z,5.57
2023-03-25T17:01:59.870Z,4.23
2023-03-25T17:04:39.343Z,1.27
2023-03-25T17:07:10.211Z,2.73
2023-03-25T17:09:43.197Z,1.63
2023-03-25T17:12:12.006Z,1.67
2023-03-25T17:14:40.997Z,1.67
2023-03-25T17:17:11.652Z,4.27
2023-03-25T17:19:43.344Z,3.40
2023-03-25T17:22:17.204Z,3.17
2023-03-25T17:24:50.514Z,1.67
2023-03-25T17:27:26.308Z,2.03
2023-03-25T17:29:55.350Z,2.77
2023-03-25T17:32:24.055Z,1.93
2023-03-25T17:35:06.577Z,1.43
2023-03-25T17:37:34.891Z,1.90
2023-03-25T17:40:11.024Z,3.43
2023-03-25T17:42:40.558Z,3.17
2023-03-25T17:45:17.346Z,2.17
2023-03-25T17:47:46.081Z,2.83
2023-03-25T17:50:19.599Z,3.20
2023-03-25T17:52:50.464Z,1.60
2023-03-25T17:55:18.364Z,2.20
2023-03-25T17:57:46.571Z,4.03
2023-03-25T18:00:17.268Z,3.00
2023-03-25T18:02:45.700Z,1.90
2023-03-25T18:05:13.668Z,3.03
2023-03-25T18:07:42.739Z,2.10
2023-03-25T18:10:15.359Z,3.97
2023-03-25T18:12:43.094Z,1.90
2023-03-25T18:15:12.045Z,3.33
2023-03-25T18:17:40.013Z,2.70
2023-03-25T18:20:14.138Z,1.50
2023-03-25T18:22:43.526Z,3.57
2023-03-25T18:25:12.393Z,3.33
2023-03-25T18:27:44.287Z,4.83
2023-03-25T18:30:20.145Z,3.73
2023-03-25T18:32:48.026Z,3.87
2023-03-25T18:35:16.006Z,3.43
2023-03-25T18:37:46.543Z,4.60
2023-03-25T18:40:19.243Z,4.87
2023-03-25T18:42:47.909Z,3.67
2023-03-25T18:45:15.946Z,3.80
2023-03-25T18:47:43.775Z,3.47
2023-03-25T18:50:16.636Z,6.03
2023-03-25T18:52:46.058Z,7.43
2023-03-25T18:55:14.073Z,2.53
2023-03-25T18:57:42.307Z,7.37
2023-03-25T19:00:19.028Z,2.97
2023-03-25T19:02:47.360Z,4.93
2023-03-25T19:05:15.411Z,5.87
2023-03-25T19:07:43.328Z,2.70
2023-03-25T19:10:15.904Z,2.40
2023-03-25T19:12:45.989Z,2.00
2023-03-25T19:15:15.269Z,2.83
2023-03-25T19:17:43.491Z,2.63
2023-03-25T19:20:14.914Z,4.03
2023-03-25T19:22:43.033Z,2.60
2023-03-25T19:25:11.464Z,2.40
2023-03-25T19:27:43.093Z,4.87
2023-03-25T19:30:11.989Z,4.10
2023-03-25T19:32:40.003Z,3.20
2023-03-25T19:35:10.408Z,2.53
2023-03-25T19:37:38.628Z,3.63
2023-03-25T19:40:08.565Z,3.43
2023-03-25T19:42:36.582Z,3.33
2023-03-25T19:45:06.681Z,2.73
2023-03-25T19:47:34.725Z,3.10
2023-03-25T19:50:02.527Z,2.07
2023-03-25T19:52:30.432Z,3.23
2023-03-25T19:54:58.158Z,2.53
2023-03-25T19:57:26.535Z,2.60
2023-03-25T19:59:55.595Z,4.77
2023-03-25T20:02:25.014Z,3.23
2023-03-25T20:04:53.101Z,5.20
2023-03-25T20:07:21.523Z,5.17
2023-03-25T20:09:49.914Z,2.27
2023-03-25T20:12:17.768Z,3.63
2023-03-25T20:14:46.286Z,2.67
2023-03-25T20:17:14.602Z,3.93
2023-03-25T20:19:43.991Z,4.80
2023-03-25T20:22:24.109Z,4.20
2023-03-25T20:24:52.737Z,5.60
2023-03-25T20:27:20.759Z,6.80
2023-03-25T20:29:48.819Z,8.43
2023-03-25T20:32:18.114Z,5.07
2023-03-25T20:34:51.388Z,7.23
2023-03-25T20:37:19.361Z,6.50
2023-03-25T20:39:47.798Z,13.53
2023-03-25T20:42:17.060Z,8.63
2023-03-25T20:44:46.111Z,6.80
2023-03-25T20:47:15.438Z,5.23
2023-03-25T20:49:45.711Z,3.10
2023-03-25T20:52:17.554Z,7.87
2023-03-25T20:54:46.359Z,6.87
2023-03-25T20:57:14.493Z,8.43
2023-03-25T20:59:42.748Z,4.73
2023-03-25T21:02:21.532Z,8.33
2023-03-25T21:04:49.787Z,4.03
2023-03-25T21:07:22.313Z,6.60
2023-03-25T21:09:50.389Z,2.70
2023-03-25T21:12:18.548Z,5.97
2023-03-25T21:14:46.673Z,3.60
2023-03-25T21:17:14.803Z,8.73
2023-03-25T21:19:43.770Z,4.67
2023-03-25T21:22:13.168Z,3.60
2023-03-25T21:24:42.524Z,11.53
2023-03-25T21:27:11.505Z,3.90
2023-03-25T21:29:40.046Z,6.60
2023-03-25T21:32:10.957Z,6.53
2023-03-25T21:34:40.634Z,4.13
2023-03-25T21:37:08.644Z,7.47
2023-03-25T21:39:36.982Z,7.33
2023-03-25T21:42:10.841Z,7.13
2023-03-25T21:44:40.821Z,2.70
2023-03-25T21:47:09.815Z,5.07
2023-03-25T21:49:38.444Z,6.47
2023-03-25T21:52:12.795Z,4.90
2023-03-25T21:54:43.362Z,4.80
2023-03-25T21:57:14.208Z,4.13
2023-03-25T21:59:42.497Z,8.47
2023-03-25T22:02:14.455Z,5.17
2023-03-25T22:04:42.669Z,3.20
2023-03-25T22:07:11.183Z,6.43
2023-03-25T22:09:39.160Z,3.67
2023-03-25T22:12:07.878Z,5.87
2023-03-25T22:14:41.316Z,4.13
2023-03-25T22:17:10.181Z,2.70
2023-03-25T22:19:38.279Z,7.77
2023-03-25T22:22:11.273Z,7.00
2023-03-25T22:24:44.137Z,7.00
2023-03-25T22:27:12.487Z,3.23
2023-03-25T22:29:42.652Z,5.00
2023-03-25T22:32:10.782Z,6.70
2023-03-25T22:34:39.130Z,5.37
2023-03-25T22:37:07.207Z,8.67
2023-03-25T22:39:35.332Z,3.63
2023-03-25T22:42:03.303Z,5.30
2023-03-25T22:44:31.295Z,8.17
2023-03-25T22:47:00.496Z,2.93
2023-03-25T22:49:28.444Z,6.37
2023-03-25T22:51:56.328Z,8.73
2023-03-25T22:54:24.474Z,3.97
2023-03-25T22:56:52.624Z,4.07
2023-03-25T22:59:21.375Z,5.90
2023-03-25T23:01:49.610Z,4.50
2023-03-25T23:04:19.074Z,4.50
2023-03-25T23:06:53.877Z,6.00
2023-03-25T23:09:41.388Z,5.80
2023-03-25T23:12:10.829Z,4.80
2023-03-25T23:14:39.410Z,5.13
2023-03-25T23:17:07.252Z,6.20
2023-03-25T23:19:36.355Z,3.73
2023-03-25T23:22:05.312Z,3.70
2023-03-25T23:24:35.885Z,3.50
2023-03-25T23:27:04.359Z,4.40
2023-03-25T23:29:32.881Z,4.00
2023-03-25T23:32:01.051Z,5.17
2023-03-25T23:34:29.114Z,6.07
2023-03-25T23:36:58.591Z,7.10
2023-03-25T23:39:27.776Z,8.13
2023-03-25T23:41:56.018Z,5.87
2023-03-25T23:44:24.194Z,5.13
2023-03-25T23:46:52.003Z,3.53
2023-03-25T23:49:20.197Z,6.00
2023-03-25T23:51:48.454Z,7.13
2023-03-25T23:54:17.683Z,8.73
2023-03-25T23:56:45.639Z,7.23
2023-03-25T23:59:13.688Z,6.03
